sensor_id;sensor_type;location;lat;lon;timestamp;temperature;humidity
15111;DHT22;7656;51.954;7.998;2023-04-19T00:03:07;12.10;99.90
15111;DHT22;7656;51.954;7.998;2023-04-19T00:07:28;12.10;99.90
15111;DHT22;7656;51.954;7.998;2023-04-19T00:11:50;11.90;99.90
15111;DHT22;7656;51.954;7.998;2023-04-19T00:16:12;11.90;99.90
15111;DHT22;7656;51.954;7.998;2023-04-19T00:20:33;12.00;99.90
15111;DHT22;7656;51.954;7.998;2023-04-19T00:24:54;12.00;99.90
15111;DHT22;7656;51.954;7.998;2023-04-19T00:29:15;12.00;99.90
15111;DHT22;7656;51.954;7.998;2023-04-19T00:33:36;11.90;99.90
15111;DHT22;7656;51.954;7.998;2023-04-19T00:37:57;12.00;99.90
15111;DHT22;7656;51.954;7.998;2023-04-19T00:42:18;12.20;99.90
15111;DHT22;7656;51.954;7.998;2023-04-19T00:46:41;12.20;99.90
15111;DHT22;7656;51.954;7.998;2023-04-19T00:51:03;12.20;99.90
15111;DHT22;7656;51.954;7.998;2023-04-19T00:55:24;12.10;99.90
15111;DHT22;7656;51.954;7.998;2023-04-19T00:59:46;11.90;99.90
15111;DHT22;7656;51.954;7.998;2023-04-19T01:04:07;11.90;99.90
15111;DHT22;7656;51.954;7.998;2023-04-19T01:08:29;12.00;99.90
15111;DHT22;7656;51.954;7.998;2023-04-19T01:12:50;12.00;99.90
15111;DHT22;7656;51.954;7.998;2023-04-19T01:17:11;12.00;99.90
15111;DHT22;7656;51.954;7.998;2023-04-19T01:21:36;11.80;99.90
15111;DHT22;7656;51.954;7.998;2023-04-19T01:26:00;11.70;99.90
15111;DHT22;7656;51.954;7.998;2023-04-19T01:30:22;11.70;99.90
15111;DHT22;7656;51.954;7.998;2023-04-19T01:34:43;11.60;99.90
15111;DHT22;7656;51.954;7.998;2023-04-19T01:39:04;11.70;99.90
15111;DHT22;7656;51.954;7.998;2023-04-19T01:43:25;11.60;99.90
15111;DHT22;7656;51.954;7.998;2023-04-19T01:47:46;11.60;99.90
15111;DHT22;7656;51.954;7.998;2023-04-19T01:52:07;11.60;99.90
15111;DHT22;7656;51.954;7.998;2023-04-19T01:56:29;11.60;99.90
15111;DHT22;7656;51.954;7.998;2023-04-19T02:00:50;11.30;99.90
15111;DHT22;7656;51.954;7.998;2023-04-19T02:05:11;11.30;99.90
15111;DHT22;7656;51.954;7.998;2023-04-19T02:09:36;11.30;99.90
15111;DHT22;7656;51.954;7.998;2023-04-19T02:13:58;11.20;99.90
15111;DHT22;7656;51.954;7.998;2023-04-19T02:18:21;11.10;99.90
15111;DHT22;7656;51.954;7.998;2023-04-19T02:22:42;11.20;99.90
15111;DHT22;7656;51.954;7.998;2023-04-19T02:27:05;11.30;99.90
15111;DHT22;7656;51.954;7.998;2023-04-19T02:31:27;11.40;99.90
15111;DHT22;7656;51.954;7.998;2023-04-19T02:35:48;11.30;99.90
15111;DHT22;7656;51.954;7.998;2023-04-19T02:40:09;11.30;99.90
15111;DHT22;7656;51.954;7.998;2023-04-19T02:44:30;11.30;99.90
15111;DHT22;7656;51.954;7.998;2023-04-19T02:48:51;11.30;99.90
15111;DHT22;7656;51.954;7.998;2023-04-19T02:53:12;11.30;99.90
15111;DHT22;7656;51.954;7.998;2023-04-19T02:57:34;11.30;99.90
15111;DHT22;7656;51.954;7.998;2023-04-19T03:01:56;11.10;99.90
15111;DHT22;7656;51.954;7.998;2023-04-19T03:06:19;11.00;99.90
15111;DHT22;7656;51.954;7.998;2023-04-19T03:10:40;11.10;99.90
15111;DHT22;7656;51.954;7.998;2023-04-19T03:15:03;11.10;99.90
15111;DHT22;7656;51.954;7.998;2023-04-19T03:19:24;11.00;99.90
15111;DHT22;7656;51.954;7.998;2023-04-19T03:23:46;10.70;99.90
15111;DHT22;7656;51.954;7.998;2023-04-19T03:28:08;10.70;99.90
15111;DHT22;7656;51.954;7.998;2023-04-19T03:32:49;10.70;99.90
15111;DHT22;7656;51.954;7.998;2023-04-19T03:37:12;10.70;99.90
15111;DHT22;7656;51.954;7.998;2023-04-19T03:41:33;10.50;99.90
15111;DHT22;7656;51.954;7.998;2023-04-19T03:46:04;10.40;99.90
15111;DHT22;7656;51.954;7.998;2023-04-19T03:50:26;10.40;99.90
15111;DHT22;7656;51.954;7.998;2023-04-19T03:54:50;10.20;99.90
15111;DHT22;7656;51.954;7.998;2023-04-19T03:59:24;10.20;99.90
15111;DHT22;7656;51.954;7.998;2023-04-19T04:03:46;10.20;99.90
15111;DHT22;7656;51.954;7.998;2023-04-19T04:08:07;10.20;99.90
15111;DHT22;7656;51.954;7.998;2023-04-19T04:12:28;10.20;99.90
15111;DHT22;7656;51.954;7.998;2023-04-19T04:16:51;10.10;99.90
15111;DHT22;7656;51.954;7.998;2023-04-19T04:21:17;9.90;99.90
15111;DHT22;7656;51.954;7.998;2023-04-19T04:25:41;10.10;99.90
15111;DHT22;7656;51.954;7.998;2023-04-19T04:30:06;9.90;99.90
15111;DHT22;7656;51.954;7.998;2023-04-19T04:34:29;9.80;99.90
15111;DHT22;7656;51.954;7.998;2023-04-19T04:38:59;9.60;99.90
15111;DHT22;7656;51.954;7.998;2023-04-19T04:43:24;9.60;99.90
15111;DHT22;7656;51.954;7.998;2023-04-19T04:47:49;9.60;99.90
15111;DHT22;7656;51.954;7.998;2023-04-19T04:52:11;9.60;99.90
15111;DHT22;7656;51.954;7.998;2023-04-19T04:56:42;9.60;99.90
15111;DHT22;7656;51.954;7.998;2023-04-19T05:01:04;9.40;99.90
15111;DHT22;7656;51.954;7.998;2023-04-19T05:05:30;9.40;99.90
15111;DHT22;7656;51.954;7.998;2023-04-19T05:09:51;9.40;99.90
15111;DHT22;7656;51.954;7.998;2023-04-19T05:14:18;9.20;99.90
15111;DHT22;7656;51.954;7.998;2023-04-19T05:18:39;9.10;99.90
15111;DHT22;7656;51.954;7.998;2023-04-19T05:23:01;9.10;99.90
15111;DHT22;7656;51.954;7.998;2023-04-19T05:27:25;9.20;99.90
15111;DHT22;7656;51.954;7.998;2023-04-19T05:31:46;9.10;99.90
15111;DHT22;7656;51.954;7.998;2023-04-19T05:36:30;9.10;99.90
15111;DHT22;7656;51.954;7.998;2023-04-19T05:40:52;9.30;99.90
15111;DHT22;7656;51.954;7.998;2023-04-19T05:45:14;9.60;99.90
15111;DHT22;7656;51.954;7.998;2023-04-19T05:49:36;9.90;99.90
15111;DHT22;7656;51.954;7.998;2023-04-19T05:54:13;10.20;99.90
15111;DHT22;7656;51.954;7.998;2023-04-19T05:58:38;10.30;99.90
15111;DHT22;7656;51.954;7.998;2023-04-19T06:02:59;10.20;99.90
15111;DHT22;7656;51.954;7.998;2023-04-19T06:07:20;10.30;99.90
15111;DHT22;7656;51.954;7.998;2023-04-19T06:11:42;10.40;99.90
15111;DHT22;7656;51.954;7.998;2023-04-19T06:16:03;10.60;99.90
15111;DHT22;7656;51.954;7.998;2023-04-19T06:20:24;10.50;99.90
15111;DHT22;7656;51.954;7.998;2023-04-19T06:24:48;11.40;99.90
15111;DHT22;7656;51.954;7.998;2023-04-19T06:29:09;12.80;99.90
15111;DHT22;7656;51.954;7.998;2023-04-19T06:33:31;15.40;99.90
15111;DHT22;7656;51.954;7.998;2023-04-19T06:37:52;17.70;99.90
15111;DHT22;7656;51.954;7.998;2023-04-19T06:42:13;20.50;99.90
15111;DHT22;7656;51.954;7.998;2023-04-19T06:46:34;22.00;93.00
15111;DHT22;7656;51.954;7.998;2023-04-19T06:50:55;23.20;89.80
15111;DHT22;7656;51.954;7.998;2023-04-19T06:55:17;24.50;79.60
15111;DHT22;7656;51.954;7.998;2023-04-19T06:59:38;24.00;75.70
15111;DHT22;7656;51.954;7.998;2023-04-19T07:03:59;25.60;72.90
15111;DHT22;7656;51.954;7.998;2023-04-19T07:17:05;27.20;60.00
15111;DHT22;7656;51.954;7.998;2023-04-19T07:21:26;26.70;60.30
15111;DHT22;7656;51.954;7.998;2023-04-19T07:43:17;28.80;52.60
15111;DHT22;7656;51.954;7.998;2023-04-19T07:47:38;27.50;52.50
15111;DHT22;7656;51.954;7.998;2023-04-19T07:52:00;26.50;55.40
15111;DHT22;7656;51.954;7.998;2023-04-19T07:56:22;25.30;57.40
15111;DHT22;7656;51.954;7.998;2023-04-19T08:00:43;25.30;55.70
15111;DHT22;7656;51.954;7.998;2023-04-19T08:05:04;24.70;57.20
15111;DHT22;7656;51.954;7.998;2023-04-19T08:09:25;24.70;55.70
15111;DHT22;7656;51.954;7.998;2023-04-19T08:13:46;24.90;54.90
15111;DHT22;7656;51.954;7.998;2023-04-19T08:18:07;21.70;58.00
15111;DHT22;7656;51.954;7.998;2023-04-19T08:22:29;21.30;60.20
15111;DHT22;7656;51.954;7.998;2023-04-19T08:26:50;22.60;57.90
15111;DHT22;7656;51.954;7.998;2023-04-19T08:31:14;21.80;58.90
15111;DHT22;7656;51.954;7.998;2023-04-19T08:35:37;19.70;59.70
15111;DHT22;7656;51.954;7.998;2023-04-19T08:40:00;20.10;59.80
15111;DHT22;7656;51.954;7.998;2023-04-19T08:44:22;16.20;64.70
15111;DHT22;7656;51.954;7.998;2023-04-19T08:48:44;16.70;69.20
15111;DHT22;7656;51.954;7.998;2023-04-19T08:53:07;18.60;63.40
15111;DHT22;7656;51.954;7.998;2023-04-19T08:57:31;19.30;61.70
15111;DHT22;7656;51.954;7.998;2023-04-19T09:01:53;21.90;56.20
15111;DHT22;7656;51.954;7.998;2023-04-19T09:06:16;21.20;57.70
15111;DHT22;7656;51.954;7.998;2023-04-19T09:10:51;22.70;58.10
15111;DHT22;7656;51.954;7.998;2023-04-19T09:15:12;24.00;56.10
15111;DHT22;7656;51.954;7.998;2023-04-19T09:37:14;27.60;48.40
15111;DHT22;7656;51.954;7.998;2023-04-19T09:41:50;24.80;51.20
15111;DHT22;7656;51.954;7.998;2023-04-19T09:46:31;22.90;52.90
15111;DHT22;7656;51.954;7.998;2023-04-19T09:50:56;20.50;55.10
15111;DHT22;7656;51.954;7.998;2023-04-19T09:55:18;17.90;61.70
15111;DHT22;7656;51.954;7.998;2023-04-19T09:59:39;18.60;58.70
15111;DHT22;7656;51.954;7.998;2023-04-19T10:04:03;18.90;59.30
15111;DHT22;7656;51.954;7.998;2023-04-19T10:08:26;18.50;59.20
15111;DHT22;7656;51.954;7.998;2023-04-19T10:12:52;16.90;62.40
15111;DHT22;7656;51.954;7.998;2023-04-19T10:17:14;16.00;63.50
15111;DHT22;7656;51.954;7.998;2023-04-19T10:21:36;17.20;64.30
15111;DHT22;7656;51.954;7.998;2023-04-19T10:25:58;18.20;63.90
15111;DHT22;7656;51.954;7.998;2023-04-19T10:30:21;18.30;61.00
15111;DHT22;7656;51.954;7.998;2023-04-19T10:34:42;18.00;64.00
15111;DHT22;7656;51.954;7.998;2023-04-19T10:39:38;18.60;61.30
15111;DHT22;7656;51.954;7.998;2023-04-19T10:44:10;17.90;62.40
15111;DHT22;7656;51.954;7.998;2023-04-19T10:48:37;17.80;61.80
15111;DHT22;7656;51.954;7.998;2023-04-19T10:58:05;18.20;57.90
15111;DHT22;7656;51.954;7.998;2023-04-19T11:02:27;18.80;59.10
15111;DHT22;7656;51.954;7.998;2023-04-19T11:11:13;18.30;59.70
15111;DHT22;7656;51.954;7.998;2023-04-19T11:15:42;18.90;57.10
15111;DHT22;7656;51.954;7.998;2023-04-19T11:20:04;18.50;56.90
15111;DHT22;7656;51.954;7.998;2023-04-19T11:24:28;18.60;58.60
15111;DHT22;7656;51.954;7.998;2023-04-19T11:28:49;19.50;57.10
15111;DHT22;7656;51.954;7.998;2023-04-19T11:33:11;20.00;56.90
15111;DHT22;7656;51.954;7.998;2023-04-19T11:37:36;20.20;57.00
15111;DHT22;7656;51.954;7.998;2023-04-19T11:41:58;20.00;56.60
15111;DHT22;7656;51.954;7.998;2023-04-19T11:46:19;19.90;58.00
15111;DHT22;7656;51.954;7.998;2023-04-19T11:50:42;20.30;56.80
15111;DHT22;7656;51.954;7.998;2023-04-19T11:55:17;20.90;55.30
15111;DHT22;7656;51.954;7.998;2023-04-19T11:59:38;21.10;53.80
15111;DHT22;7656;51.954;7.998;2023-04-19T12:04:33;21.30;53.50
15111;DHT22;7656;51.954;7.998;2023-04-19T12:08:55;20.90;55.20
15111;DHT22;7656;51.954;7.998;2023-04-19T12:13:18;21.40;54.20
15111;DHT22;7656;51.954;7.998;2023-04-19T12:17:59;21.80;52.70
15111;DHT22;7656;51.954;7.998;2023-04-19T12:22:21;22.70;52.50
15111;DHT22;7656;51.954;7.998;2023-04-19T12:26:55;23.50;51.20
15111;DHT22;7656;51.954;7.998;2023-04-19T12:31:17;19.80;55.40
15111;DHT22;7656;51.954;7.998;2023-04-19T12:35:38;19.80;55.40
15111;DHT22;7656;51.954;7.998;2023-04-19T12:39:59;21.50;55.20
15111;DHT22;7656;51.954;7.998;2023-04-19T12:44:21;23.10;53.20
15111;DHT22;7656;51.954;7.998;2023-04-19T12:48:42;24.10;51.00
15111;DHT22;7656;51.954;7.998;2023-04-19T12:53:03;24.20;50.20
15111;DHT22;7656;51.954;7.998;2023-04-19T12:57:24;23.80;50.20
15111;DHT22;7656;51.954;7.998;2023-04-19T13:01:45;24.40;50.30
15111;DHT22;7656;51.954;7.998;2023-04-19T13:06:07;23.40;50.00
15111;DHT22;7656;51.954;7.998;2023-04-19T13:10:28;22.10;50.10
15111;DHT22;7656;51.954;7.998;2023-04-19T13:14:50;23.40;51.30
15111;DHT22;7656;51.954;7.998;2023-04-19T13:19:12;21.60;53.00
15111;DHT22;7656;51.954;7.998;2023-04-19T13:23:33;22.70;51.50
15111;DHT22;7656;51.954;7.998;2023-04-19T13:27:54;20.50;52.30
15111;DHT22;7656;51.954;7.998;2023-04-19T13:32:15;21.20;52.50
15111;DHT22;7656;51.954;7.998;2023-04-19T13:36:36;21.50;52.10
15111;DHT22;7656;51.954;7.998;2023-04-19T13:40:58;21.40;52.00
15111;DHT22;7656;51.954;7.998;2023-04-19T13:45:20;21.20;51.70
15111;DHT22;7656;51.954;7.998;2023-04-19T13:49:41;22.20;51.90
15111;DHT22;7656;51.954;7.998;2023-04-19T13:54:02;22.80;49.10
15111;DHT22;7656;51.954;7.998;2023-04-19T13:58:23;23.00;50.00
15111;DHT22;7656;51.954;7.998;2023-04-19T14:02:45;22.50;48.40
15111;DHT22;7656;51.954;7.998;2023-04-19T14:07:06;22.10;47.90
15111;DHT22;7656;51.954;7.998;2023-04-19T14:11:27;21.30;50.30
15111;DHT22;7656;51.954;7.998;2023-04-19T14:15:48;20.80;49.50
15111;DHT22;7656;51.954;7.998;2023-04-19T14:20:09;20.40;51.20
15111;DHT22;7656;51.954;7.998;2023-04-19T14:24:31;20.90;50.60
15111;DHT22;7656;51.954;7.998;2023-04-19T14:28:52;20.20;51.10
15111;DHT22;7656;51.954;7.998;2023-04-19T14:33:13;20.20;50.30
15111;DHT22;7656;51.954;7.998;2023-04-19T14:37:34;20.10;51.10
15111;DHT22;7656;51.954;7.998;2023-04-19T14:41:55;20.70;51.50
15111;DHT22;7656;51.954;7.998;2023-04-19T14:46:17;20.20;50.30
15111;DHT22;7656;51.954;7.998;2023-04-19T14:50:38;19.80;50.40
15111;DHT22;7656;51.954;7.998;2023-04-19T14:54:59;19.60;51.10
15111;DHT22;7656;51.954;7.998;2023-04-19T14:59:21;18.90;52.10
15111;DHT22;7656;51.954;7.998;2023-04-19T15:03:42;18.70;51.80
15111;DHT22;7656;51.954;7.998;2023-04-19T15:08:03;18.50;50.40
15111;DHT22;7656;51.954;7.998;2023-04-19T15:12:24;18.60;50.30
15111;DHT22;7656;51.954;7.998;2023-04-19T15:16:45;18.80;51.10
15111;DHT22;7656;51.954;7.998;2023-04-19T15:21:06;18.40;51.70
15111;DHT22;7656;51.954;7.998;2023-04-19T15:25:27;18.50;52.50
15111;DHT22;7656;51.954;7.998;2023-04-19T15:29:49;18.80;51.70
15111;DHT22;7656;51.954;7.998;2023-04-19T15:34:10;18.60;51.80
15111;DHT22;7656;51.954;7.998;2023-04-19T15:38:31;18.60;52.30
15111;DHT22;7656;51.954;7.998;2023-04-19T15:42:53;18.50;52.10
15111;DHT22;7656;51.954;7.998;2023-04-19T15:47:15;18.50;52.10
15111;DHT22;7656;51.954;7.998;2023-04-19T15:51:37;18.70;53.20
15111;DHT22;7656;51.954;7.998;2023-04-19T15:55:58;17.80;53.50
15111;DHT22;7656;51.954;7.998;2023-04-19T16:00:20;17.70;53.50
15111;DHT22;7656;51.954;7.998;2023-04-19T16:04:41;17.70;53.60
15111;DHT22;7656;51.954;7.998;2023-04-19T16:09:06;17.40;53.60
15111;DHT22;7656;51.954;7.998;2023-04-19T16:13:28;17.40;53.70
15111;DHT22;7656;51.954;7.998;2023-04-19T16:17:50;17.30;53.90
15111;DHT22;7656;51.954;7.998;2023-04-19T16:22:12;17.30;54.10
15111;DHT22;7656;51.954;7.998;2023-04-19T16:26:33;17.20;54.20
15111;DHT22;7656;51.954;7.998;2023-04-19T16:30:54;17.00;55.00
15111;DHT22;7656;51.954;7.998;2023-04-19T16:35:15;16.80;55.70
15111;DHT22;7656;51.954;7.998;2023-04-19T16:39:38;16.60;56.00
15111;DHT22;7656;51.954;7.998;2023-04-19T16:43:59;15.80;56.80
15111;DHT22;7656;51.954;7.998;2023-04-19T16:48:20;15.90;57.60
15111;DHT22;7656;51.954;7.998;2023-04-19T16:52:41;15.80;57.60
15111;DHT22;7656;51.954;7.998;2023-04-19T16:57:02;15.40;58.20
15111;DHT22;7656;51.954;7.998;2023-04-19T17:01:23;15.30;58.30
15111;DHT22;7656;51.954;7.998;2023-04-19T17:05:44;15.30;59.00
15111;DHT22;7656;51.954;7.998;2023-04-19T17:10:06;15.10;58.80
15111;DHT22;7656;51.954;7.998;2023-04-19T17:14:27;15.10;59.10
15111;DHT22;7656;51.954;7.998;2023-04-19T17:18:49;14.30;59.60
15111;DHT22;7656;51.954;7.998;2023-04-19T17:23:10;13.80;62.40
15111;DHT22;7656;51.954;7.998;2023-04-19T17:27:31;13.80;62.90
15111;DHT22;7656;51.954;7.998;2023-04-19T17:31:53;14.00;62.80
15111;DHT22;7656;51.954;7.998;2023-04-19T17:36:14;14.00;63.60
15111;DHT22;7656;51.954;7.998;2023-04-19T17:40:35;13.90;63.80
15111;DHT22;7656;51.954;7.998;2023-04-19T17:44:56;13.90;64.10
15111;DHT22;7656;51.954;7.998;2023-04-19T17:49:18;14.00;64.30
15111;DHT22;7656;51.954;7.998;2023-04-19T17:53:40;14.00;65.70
15111;DHT22;7656;51.954;7.998;2023-04-19T17:58:01;14.00;65.40
15111;DHT22;7656;51.954;7.998;2023-04-19T18:02:22;14.00;65.50
15111;DHT22;7656;51.954;7.998;2023-04-19T18:06:44;14.10;64.90
15111;DHT22;7656;51.954;7.998;2023-04-19T18:11:06;14.10;65.40
15111;DHT22;7656;51.954;7.998;2023-04-19T18:15:27;14.00;65.20
15111;DHT22;7656;51.954;7.998;2023-04-19T18:19:48;13.70;66.40
15111;DHT22;7656;51.954;7.998;2023-04-19T18:24:10;13.40;65.60
15111;DHT22;7656;51.954;7.998;2023-04-19T18:28:31;13.30;66.40
15111;DHT22;7656;51.954;7.998;2023-04-19T18:32:55;13.10;66.40
15111;DHT22;7656;51.954;7.998;2023-04-19T18:37:16;13.10;66.30
15111;DHT22;7656;51.954;7.998;2023-04-19T18:41:37;13.00;66.40
15111;DHT22;7656;51.954;7.998;2023-04-19T18:45:58;12.90;67.00
15111;DHT22;7656;51.954;7.998;2023-04-19T18:50:21;12.70;67.30
15111;DHT22;7656;51.954;7.998;2023-04-19T18:54:42;12.50;67.90
15111;DHT22;7656;51.954;7.998;2023-04-19T18:59:03;12.30;68.10
15111;DHT22;7656;51.954;7.998;2023-04-19T19:03:24;12.30;68.80
15111;DHT22;7656;51.954;7.998;2023-04-19T19:07:46;12.20;69.50
15111;DHT22;7656;51.954;7.998;2023-04-19T19:12:08;12.10;70.10
15111;DHT22;7656;51.954;7.998;2023-04-19T19:16:30;11.90;70.60
15111;DHT22;7656;51.954;7.998;2023-04-19T19:20:51;11.80;71.70
15111;DHT22;7656;51.954;7.998;2023-04-19T19:25:13;11.70;71.20
15111;DHT22;7656;51.954;7.998;2023-04-19T19:29:34;11.70;71.50
15111;DHT22;7656;51.954;7.998;2023-04-19T19:33:55;11.50;72.20
15111;DHT22;7656;51.954;7.998;2023-04-19T19:38:16;11.40;72.70
15111;DHT22;7656;51.954;7.998;2023-04-19T19:42:37;11.20;73.30
15111;DHT22;7656;51.954;7.998;2023-04-19T19:47:01;11.00;73.60
15111;DHT22;7656;51.954;7.998;2023-04-19T19:51:22;11.00;73.70
15111;DHT22;7656;51.954;7.998;2023-04-19T19:55:43;11.00;74.30
15111;DHT22;7656;51.954;7.998;2023-04-19T20:00:05;10.80;73.30
15111;DHT22;7656;51.954;7.998;2023-04-19T20:04:33;10.70;72.70
15111;DHT22;7656;51.954;7.998;2023-04-19T20:08:54;10.80;72.10
15111;DHT22;7656;51.954;7.998;2023-04-19T20:13:16;10.70;71.20
15111;DHT22;7656;51.954;7.998;2023-04-19T20:17:38;10.70;71.30
15111;DHT22;7656;51.954;7.998;2023-04-19T20:22:00;10.70;71.20
15111;DHT22;7656;51.954;7.998;2023-04-19T20:26:21;10.50;71.50
15111;DHT22;7656;51.954;7.998;2023-04-19T20:30:42;10.50;70.80
15111;DHT22;7656;51.954;7.998;2023-04-19T20:35:03;10.50;71.20
15111;DHT22;7656;51.954;7.998;2023-04-19T20:39:28;10.60;71.00
15111;DHT22;7656;51.954;7.998;2023-04-19T20:43:49;10.80;70.30
15111;DHT22;7656;51.954;7.998;2023-04-19T20:48:10;10.80;70.00
15111;DHT22;7656;51.954;7.998;2023-04-19T20:52:33;10.60;70.00
15111;DHT22;7656;51.954;7.998;2023-04-19T20:56:59;10.70;69.60
15111;DHT22;7656;51.954;7.998;2023-04-19T21:01:21;10.70;69.80
15111;DHT22;7656;51.954;7.998;2023-04-19T21:05:42;10.70;69.40
15111;DHT22;7656;51.954;7.998;2023-04-19T21:10:05;10.50;69.80
15111;DHT22;7656;51.954;7.998;2023-04-19T21:14:27;10.30;69.90
15111;DHT22;7656;51.954;7.998;2023-04-19T21:18:53;10.40;69.80
15111;DHT22;7656;51.954;7.998;2023-04-19T21:23:14;10.50;69.60
15111;DHT22;7656;51.954;7.998;2023-04-19T21:27:36;10.50;69.90
15111;DHT22;7656;51.954;7.998;2023-04-19T21:31:57;10.50;69.50
15111;DHT22;7656;51.954;7.998;2023-04-19T21:36:18;10.60;69.40
15111;DHT22;7656;51.954;7.998;2023-04-19T21:40:40;10.60;69.30
15111;DHT22;7656;51.954;7.998;2023-04-19T21:45:01;10.40;69.20
15111;DHT22;7656;51.954;7.998;2023-04-19T21:49:23;10.10;70.30
15111;DHT22;7656;51.954;7.998;2023-04-19T21:53:44;9.90;71.00
15111;DHT22;7656;51.954;7.998;2023-04-19T21:58:05;9.90;71.60
15111;DHT22;7656;51.954;7.998;2023-04-19T22:02:26;9.90;71.80
15111;DHT22;7656;51.954;7.998;2023-04-19T22:06:47;10.00;72.30
15111;DHT22;7656;51.954;7.998;2023-04-19T22:11:09;10.10;72.60
15111;DHT22;7656;51.954;7.998;2023-04-19T22:15:31;10.10;72.60
15111;DHT22;7656;51.954;7.998;2023-04-19T22:19:52;10.20;72.70
15111;DHT22;7656;51.954;7.998;2023-04-19T22:24:13;10.20;72.70
15111;DHT22;7656;51.954;7.998;2023-04-19T22:28:35;10.20;72.80
15111;DHT22;7656;51.954;7.998;2023-04-19T22:32:56;10.20;72.60
15111;DHT22;7656;51.954;7.998;2023-04-19T22:37:17;10.30;72.90
15111;DHT22;7656;51.954;7.998;2023-04-19T22:41:38;10.50;72.50
15111;DHT22;7656;51.954;7.998;2023-04-19T22:45:59;10.40;72.60
15111;DHT22;7656;51.954;7.998;2023-04-19T22:50:20;10.40;72.70
15111;DHT22;7656;51.954;7.998;2023-04-19T22:54:43;10.40;73.00
15111;DHT22;7656;51.954;7.998;2023-04-19T22:59:04;10.50;73.20
15111;DHT22;7656;51.954;7.998;2023-04-19T23:03:27;10.60;74.00
15111;DHT22;7656;51.954;7.998;2023-04-19T23:07:48;10.70;72.80
15111;DHT22;7656;51.954;7.998;2023-04-19T23:12:10;10.60;73.20
15111;DHT22;7656;51.954;7.998;2023-04-19T23:16:36;10.30;74.30
15111;DHT22;7656;51.954;7.998;2023-04-19T23:20:58;10.30;74.00
15111;DHT22;7656;51.954;7.998;2023-04-19T23:25:19;10.30;73.90
15111;DHT22;7656;51.954;7.998;2023-04-19T23:29:40;10.20;74.30
15111;DHT22;7656;51.954;7.998;2023-04-19T23:34:01;10.10;74.50
15111;DHT22;7656;51.954;7.998;2023-04-19T23:38:22;10.20;74.40
15111;DHT22;7656;51.954;7.998;2023-04-19T23:42:43;10.10;75.20
15111;DHT22;7656;51.954;7.998;2023-04-19T23:47:05;10.10;75.90
15111;DHT22;7656;51.954;7.998;2023-04-19T23:51:26;10.10;76.50
15111;DHT22;7656;51.954;7.998;2023-04-19T23:55:47;10.10;76.60
